Terminal Aerodrome Forecast
Issued by NWS Mt. Holly, NJ

Home | Current Version | Previous Version | Text Only | Print | Product List | Glossary On
Versions: 1 2 3 4 5 6 7 8 9 10 11 12 13 14 15
322
FTUS41 KPHI 231141
TAFACY
TAF
KACY 231141Z 2312/2412 25008KT P6SM FEW060
     FM231300 30008KT P6SM FEW060
     FM231600 28012G20KT P6SM SCT050
      TEMPO 2321/2324 SHRA
     FM240000 24008KT P6SM SKC
     FM240500 VRB02KT P6SM SKC
     FM240800 VRB02KT 5SM BR SKC=

USA.gov is the U.S. government's official web portal to all federal, state and local government web resources and services.